sensor_id;sensor_type;location;lat;lon;timestamp;P1;durP1;ratioP1;P2;durP2;ratioP2
3563;SDS011;1796;52.388;13.096;2023-02-28T00:00:30;8.97;;;5.97;;
3563;SDS011;1796;52.388;13.096;2023-02-28T00:02:58;7.07;;;5.63;;
3563;SDS011;1796;52.388;13.096;2023-02-28T00:05:26;7.53;;;5.17;;
3563;SDS011;1796;52.388;13.096;2023-02-28T00:07:54;13.67;;;5.43;;
3563;SDS011;1796;52.388;13.096;2023-02-28T00:10:23;15.87;;;5.60;;
3563;SDS011;1796;52.388;13.096;2023-02-28T00:12:52;9.50;;;5.33;;
3563;SDS011;1796;52.388;13.096;2023-02-28T00:15:22;10.57;;;5.90;;
3563;SDS011;1796;52.388;13.096;2023-02-28T00:17:49;5.93;;;4.90;;
3563;SDS011;1796;52.388;13.096;2023-02-28T00:20:16;5.70;;;5.10;;
3563;SDS011;1796;52.388;13.096;2023-02-28T00:22:46;8.10;;;5.40;;
3563;SDS011;1796;52.388;13.096;2023-02-28T00:25:16;11.33;;;6.07;;
3563;SDS011;1796;52.388;13.096;2023-02-28T00:27:44;5.40;;;4.90;;
3563;SDS011;1796;52.388;13.096;2023-02-28T00:30:12;7.43;;;5.20;;
3563;SDS011;1796;52.388;13.096;2023-02-28T00:32:40;10.77;;;6.30;;
3563;SDS011;1796;52.388;13.096;2023-02-28T00:35:08;5.20;;;4.40;;
3563;SDS011;1796;52.388;13.096;2023-02-28T00:37:35;12.13;;;5.33;;
3563;SDS011;1796;52.388;13.096;2023-02-28T00:40:03;7.90;;;5.40;;
3563;SDS011;1796;52.388;13.096;2023-02-28T00:42:31;11.50;;;6.40;;
3563;SDS011;1796;52.388;13.096;2023-02-28T00:44:58;7.80;;;5.43;;
3563;SDS011;1796;52.388;13.096;2023-02-28T00:47:25;7.23;;;5.33;;
3563;SDS011;1796;52.388;13.096;2023-02-28T00:49:52;8.30;;;5.27;;
3563;SDS011;1796;52.388;13.096;2023-02-28T00:52:19;10.83;;;5.63;;
3563;SDS011;1796;52.388;13.096;2023-02-28T00:54:46;7.30;;;4.67;;
3563;SDS011;1796;52.388;13.096;2023-02-28T00:57:14;7.50;;;5.17;;
3563;SDS011;1796;52.388;13.096;2023-02-28T00:59:41;5.43;;;4.40;;
3563;SDS011;1796;52.388;13.096;2023-02-28T01:02:08;5.30;;;4.20;;
3563;SDS011;1796;52.388;13.096;2023-02-28T01:04:35;7.67;;;4.40;;
3563;SDS011;1796;52.388;13.096;2023-02-28T01:07:02;8.37;;;4.30;;
3563;SDS011;1796;52.388;13.096;2023-02-28T01:09:29;8.87;;;4.80;;
3563;SDS011;1796;52.388;13.096;2023-02-28T01:11:55;6.30;;;5.17;;
3563;SDS011;1796;52.388;13.096;2023-02-28T01:14:24;6.00;;;4.83;;
3563;SDS011;1796;52.388;13.096;2023-02-28T01:16:51;7.53;;;4.23;;
3563;SDS011;1796;52.388;13.096;2023-02-28T01:19:17;14.40;;;5.00;;
3563;SDS011;1796;52.388;13.096;2023-02-28T01:21:44;10.80;;;5.37;;
3563;SDS011;1796;52.388;13.096;2023-02-28T01:24:11;6.87;;;4.13;;
3563;SDS011;1796;52.388;13.096;2023-02-28T01:26:38;5.17;;;4.60;;
3563;SDS011;1796;52.388;13.096;2023-02-28T01:29:05;5.07;;;3.97;;
3563;SDS011;1796;52.388;13.096;2023-02-28T01:31:33;5.33;;;4.40;;
3563;SDS011;1796;52.388;13.096;2023-02-28T01:34:00;4.87;;;4.33;;
3563;SDS011;1796;52.388;13.096;2023-02-28T01:36:27;7.40;;;4.50;;
3563;SDS011;1796;52.388;13.096;2023-02-28T01:38:54;7.00;;;3.77;;
3563;SDS011;1796;52.388;13.096;2023-02-28T01:41:21;10.83;;;3.70;;
3563;SDS011;1796;52.388;13.096;2023-02-28T01:43:55;5.60;;;4.30;;
3563;SDS011;1796;52.388;13.096;2023-02-28T01:46:24;7.83;;;3.67;;
3563;SDS011;1796;52.388;13.096;2023-02-28T01:48:53;4.50;;;4.10;;
3563;SDS011;1796;52.388;13.096;2023-02-28T01:51:24;5.70;;;4.40;;
3563;SDS011;1796;52.388;13.096;2023-02-28T01:53:55;7.23;;;4.33;;
3563;SDS011;1796;52.388;13.096;2023-02-28T01:56:26;7.23;;;4.17;;
3563;SDS011;1796;52.388;13.096;2023-02-28T01:58:56;5.30;;;4.03;;
3563;SDS011;1796;52.388;13.096;2023-02-28T02:01:25;5.50;;;4.37;;
3563;SDS011;1796;52.388;13.096;2023-02-28T02:03:56;7.67;;;4.40;;
3563;SDS011;1796;52.388;13.096;2023-02-28T02:06:27;4.67;;;4.17;;
3563;SDS011;1796;52.388;13.096;2023-02-28T02:08:57;5.73;;;3.67;;
3563;SDS011;1796;52.388;13.096;2023-02-28T02:11:23;7.10;;;4.27;;
3563;SDS011;1796;52.388;13.096;2023-02-28T02:16:47;6.77;;;4.00;;
3563;SDS011;1796;52.388;13.096;2023-02-28T02:19:29;5.30;;;4.40;;
3563;SDS011;1796;52.388;13.096;2023-02-28T02:22:34;6.73;;;4.60;;
3563;SDS011;1796;52.388;13.096;2023-02-28T02:25:18;7.50;;;4.30;;
3563;SDS011;1796;52.388;13.096;2023-02-28T02:28:08;5.90;;;5.00;;
3563;SDS011;1796;52.388;13.096;2023-02-28T02:36:53;5.50;;;4.17;;
3563;SDS011;1796;52.388;13.096;2023-02-28T02:39:29;7.03;;;4.40;;
3563;SDS011;1796;52.388;13.096;2023-02-28T02:42:01;6.00;;;4.20;;
3563;SDS011;1796;52.388;13.096;2023-02-28T02:44:34;4.50;;;4.10;;
3563;SDS011;1796;52.388;13.096;2023-02-28T02:47:06;7.00;;;4.80;;
3563;SDS011;1796;52.388;13.096;2023-02-28T02:49:38;8.43;;;4.50;;
3563;SDS011;1796;52.388;13.096;2023-02-28T02:52:08;9.03;;;4.70;;
3563;SDS011;1796;52.388;13.096;2023-02-28T02:54:38;9.90;;;4.77;;
3563;SDS011;1796;52.388;13.096;2023-02-28T02:57:08;6.93;;;4.67;;
3563;SDS011;1796;52.388;13.096;2023-02-28T02:59:40;6.20;;;4.40;;
3563;SDS011;1796;52.388;13.096;2023-02-28T03:02:08;5.93;;;4.30;;
3563;SDS011;1796;52.388;13.096;2023-02-28T03:04:40;9.97;;;4.93;;
3563;SDS011;1796;52.388;13.096;2023-02-28T03:07:11;6.67;;;4.47;;
3563;SDS011;1796;52.388;13.096;2023-02-28T03:09:38;11.00;;;4.70;;
3563;SDS011;1796;52.388;13.096;2023-02-28T03:12:06;5.53;;;4.80;;
3563;SDS011;1796;52.388;13.096;2023-02-28T03:14:40;9.13;;;4.40;;
3563;SDS011;1796;52.388;13.096;2023-02-28T03:17:20;6.53;;;4.47;;
3563;SDS011;1796;52.388;13.096;2023-02-28T03:19:58;5.63;;;4.10;;
3563;SDS011;1796;52.388;13.096;2023-02-28T03:25:27;9.57;;;4.90;;
3563;SDS011;1796;52.388;13.096;2023-02-28T03:28:03;5.30;;;4.63;;
3563;SDS011;1796;52.388;13.096;2023-02-28T03:30:36;4.97;;;4.10;;
3563;SDS011;1796;52.388;13.096;2023-02-28T03:33:09;8.10;;;4.70;;
3563;SDS011;1796;52.388;13.096;2023-02-28T03:35:41;5.50;;;4.70;;
3563;SDS011;1796;52.388;13.096;2023-02-28T03:38:12;6.03;;;5.00;;
3563;SDS011;1796;52.388;13.096;2023-02-28T03:40:44;22.13;;;6.13;;
3563;SDS011;1796;52.388;13.096;2023-02-28T03:43:15;11.27;;;5.50;;
3563;SDS011;1796;52.388;13.096;2023-02-28T03:45:47;8.93;;;5.37;;
3563;SDS011;1796;52.388;13.096;2023-02-28T03:48:19;8.47;;;5.50;;
3563;SDS011;1796;52.388;13.096;2023-02-28T03:50:52;7.40;;;4.37;;
3563;SDS011;1796;52.388;13.096;2023-02-28T03:53:22;4.77;;;4.27;;
3563;SDS011;1796;52.388;13.096;2023-02-28T03:55:54;11.03;;;5.17;;
3563;SDS011;1796;52.388;13.096;2023-02-28T03:58:27;7.80;;;4.80;;
3563;SDS011;1796;52.388;13.096;2023-02-28T04:00:59;7.63;;;4.73;;
3563;SDS011;1796;52.388;13.096;2023-02-28T04:03:33;10.53;;;4.40;;
3563;SDS011;1796;52.388;13.096;2023-02-28T04:06:02;9.40;;;4.83;;
3563;SDS011;1796;52.388;13.096;2023-02-28T04:08:30;7.93;;;5.20;;
3563;SDS011;1796;52.388;13.096;2023-02-28T04:10:58;6.83;;;4.93;;
3563;SDS011;1796;52.388;13.096;2023-02-28T04:13:29;7.73;;;5.20;;
3563;SDS011;1796;52.388;13.096;2023-02-28T04:15:56;9.23;;;4.57;;
3563;SDS011;1796;52.388;13.096;2023-02-28T04:18:22;6.10;;;4.50;;
3563;SDS011;1796;52.388;13.096;2023-02-28T04:20:49;5.47;;;4.03;;
3563;SDS011;1796;52.388;13.096;2023-02-28T04:23:18;8.93;;;5.30;;
3563;SDS011;1796;52.388;13.096;2023-02-28T04:25:44;7.70;;;5.03;;
3563;SDS011;1796;52.388;13.096;2023-02-28T04:28:11;6.13;;;4.60;;
3563;SDS011;1796;52.388;13.096;2023-02-28T04:30:38;5.83;;;5.10;;
3563;SDS011;1796;52.388;13.096;2023-02-28T04:33:05;8.07;;;5.50;;
3563;SDS011;1796;52.388;13.096;2023-02-28T04:35:32;11.07;;;4.50;;
3563;SDS011;1796;52.388;13.096;2023-02-28T04:37:59;8.80;;;5.03;;
3563;SDS011;1796;52.388;13.096;2023-02-28T04:40:27;8.20;;;5.20;;
3563;SDS011;1796;52.388;13.096;2023-02-28T04:42:54;7.30;;;5.60;;
3563;SDS011;1796;52.388;13.096;2023-02-28T04:45:21;7.10;;;5.40;;
3563;SDS011;1796;52.388;13.096;2023-02-28T04:47:48;7.90;;;4.77;;
3563;SDS011;1796;52.388;13.096;2023-02-28T04:50:14;7.00;;;5.60;;
3563;SDS011;1796;52.388;13.096;2023-02-28T04:52:41;6.13;;;5.53;;
3563;SDS011;1796;52.388;13.096;2023-02-28T04:55:08;5.53;;;4.27;;
3563;SDS011;1796;52.388;13.096;2023-02-28T04:57:37;7.40;;;5.30;;
3563;SDS011;1796;52.388;13.096;2023-02-28T05:00:04;9.40;;;6.60;;
3563;SDS011;1796;52.388;13.096;2023-02-28T05:02:36;7.63;;;5.87;;
3563;SDS011;1796;52.388;13.096;2023-02-28T05:05:03;10.63;;;5.13;;
3563;SDS011;1796;52.388;13.096;2023-02-28T05:07:30;6.70;;;5.13;;
3563;SDS011;1796;52.388;13.096;2023-02-28T05:09:57;9.20;;;5.20;;
3563;SDS011;1796;52.388;13.096;2023-02-28T05:12:24;5.03;;;4.53;;
3563;SDS011;1796;52.388;13.096;2023-02-28T05:14:52;8.43;;;5.30;;
3563;SDS011;1796;52.388;13.096;2023-02-28T05:17:19;13.37;;;6.10;;
3563;SDS011;1796;52.388;13.096;2023-02-28T05:19:46;8.13;;;5.50;;
3563;SDS011;1796;52.388;13.096;2023-02-28T05:22:13;13.00;;;5.50;;
3563;SDS011;1796;52.388;13.096;2023-02-28T05:24:41;5.13;;;4.67;;
3563;SDS011;1796;52.388;13.096;2023-02-28T05:27:08;11.03;;;6.00;;
3563;SDS011;1796;52.388;13.096;2023-02-28T05:29:36;14.90;;;6.20;;
3563;SDS011;1796;52.388;13.096;2023-02-28T05:32:08;6.97;;;4.90;;
3563;SDS011;1796;52.388;13.096;2023-02-28T05:34:36;7.83;;;5.10;;
3563;SDS011;1796;52.388;13.096;2023-02-28T05:37:03;16.00;;;5.57;;
3563;SDS011;1796;52.388;13.096;2023-02-28T05:39:30;8.00;;;5.07;;
3563;SDS011;1796;52.388;13.096;2023-02-28T05:41:57;9.37;;;5.20;;
3563;SDS011;1796;52.388;13.096;2023-02-28T05:44:24;8.80;;;5.47;;
3563;SDS011;1796;52.388;13.096;2023-02-28T05:46:51;11.97;;;5.60;;
3563;SDS011;1796;52.388;13.096;2023-02-28T05:49:19;12.13;;;5.53;;
3563;SDS011;1796;52.388;13.096;2023-02-28T05:51:46;11.00;;;5.37;;
3563;SDS011;1796;52.388;13.096;2023-02-28T05:54:13;7.57;;;5.03;;
3563;SDS011;1796;52.388;13.096;2023-02-28T05:56:39;8.80;;;5.77;;
3563;SDS011;1796;52.388;13.096;2023-02-28T05:59:09;6.07;;;5.17;;
3563;SDS011;1796;52.388;13.096;2023-02-28T06:01:37;7.90;;;5.33;;
3563;SDS011;1796;52.388;13.096;2023-02-28T06:04:06;11.13;;;6.00;;
3563;SDS011;1796;52.388;13.096;2023-02-28T06:06:35;9.47;;;6.30;;
3563;SDS011;1796;52.388;13.096;2023-02-28T06:09:04;8.63;;;6.47;;
3563;SDS011;1796;52.388;13.096;2023-02-28T06:11:31;8.53;;;6.10;;
3563;SDS011;1796;52.388;13.096;2023-02-28T06:13:58;8.40;;;5.20;;
3563;SDS011;1796;52.388;13.096;2023-02-28T06:16:26;12.90;;;6.23;;
3563;SDS011;1796;52.388;13.096;2023-02-28T06:18:54;12.90;;;7.00;;
3563;SDS011;1796;52.388;13.096;2023-02-28T06:21:21;16.63;;;8.23;;
3563;SDS011;1796;52.388;13.096;2023-02-28T06:23:50;12.40;;;7.80;;
3563;SDS011;1796;52.388;13.096;2023-02-28T06:26:17;15.87;;;8.20;;
3563;SDS011;1796;52.388;13.096;2023-02-28T06:28:44;13.80;;;8.63;;
3563;SDS011;1796;52.388;13.096;2023-02-28T06:31:12;9.40;;;6.43;;
3563;SDS011;1796;52.388;13.096;2023-02-28T06:33:40;8.90;;;6.53;;
3563;SDS011;1796;52.388;13.096;2023-02-28T06:36:08;10.87;;;5.83;;
3563;SDS011;1796;52.388;13.096;2023-02-28T06:38:36;7.20;;;5.60;;
3563;SDS011;1796;52.388;13.096;2023-02-28T06:41:05;6.67;;;4.93;;
3563;SDS011;1796;52.388;13.096;2023-02-28T06:43:33;6.30;;;4.83;;
3563;SDS011;1796;52.388;13.096;2023-02-28T06:46:02;11.07;;;5.90;;
3563;SDS011;1796;52.388;13.096;2023-02-28T06:48:31;13.67;;;5.97;;
3563;SDS011;1796;52.388;13.096;2023-02-28T06:51:02;8.40;;;5.67;;
3563;SDS011;1796;52.388;13.096;2023-02-28T06:53:30;13.10;;;6.47;;
3563;SDS011;1796;52.388;13.096;2023-02-28T06:55:57;11.87;;;5.20;;
3563;SDS011;1796;52.388;13.096;2023-02-28T06:58:25;11.53;;;6.00;;
3563;SDS011;1796;52.388;13.096;2023-02-28T07:00:52;6.07;;;4.80;;
3563;SDS011;1796;52.388;13.096;2023-02-28T07:03:20;5.90;;;5.30;;
3563;SDS011;1796;52.388;13.096;2023-02-28T07:05:48;7.70;;;5.50;;
3563;SDS011;1796;52.388;13.096;2023-02-28T07:08:16;10.70;;;5.60;;
3563;SDS011;1796;52.388;13.096;2023-02-28T07:10:42;10.60;;;6.20;;
3563;SDS011;1796;52.388;13.096;2023-02-28T07:13:10;6.60;;;5.40;;
3563;SDS011;1796;52.388;13.096;2023-02-28T07:15:39;12.37;;;6.40;;
3563;SDS011;1796;52.388;13.096;2023-02-28T07:18:05;15.53;;;5.97;;
3563;SDS011;1796;52.388;13.096;2023-02-28T07:20:32;7.10;;;6.17;;
3563;SDS011;1796;52.388;13.096;2023-02-28T07:22:59;10.40;;;6.90;;
3563;SDS011;1796;52.388;13.096;2023-02-28T07:25:26;9.93;;;6.97;;
3563;SDS011;1796;52.388;13.096;2023-02-28T07:27:54;17.70;;;6.43;;
3563;SDS011;1796;52.388;13.096;2023-02-28T07:30:22;11.40;;;7.20;;
3563;SDS011;1796;52.388;13.096;2023-02-28T07:32:50;6.33;;;5.70;;
3563;SDS011;1796;52.388;13.096;2023-02-28T07:35:17;8.67;;;5.70;;
3563;SDS011;1796;52.388;13.096;2023-02-28T07:37:44;8.10;;;5.73;;
3563;SDS011;1796;52.388;13.096;2023-02-28T07:40:12;8.63;;;5.67;;
3563;SDS011;1796;52.388;13.096;2023-02-28T07:42:40;5.17;;;4.70;;
3563;SDS011;1796;52.388;13.096;2023-02-28T07:45:08;17.90;;;5.23;;
3563;SDS011;1796;52.388;13.096;2023-02-28T07:47:36;7.67;;;5.03;;
3563;SDS011;1796;52.388;13.096;2023-02-28T07:50:05;6.00;;;4.60;;
3563;SDS011;1796;52.388;13.096;2023-02-28T07:52:33;4.60;;;4.27;;
3563;SDS011;1796;52.388;13.096;2023-02-28T07:55:02;5.43;;;4.77;;
3563;SDS011;1796;52.388;13.096;2023-02-28T07:57:29;3.53;;;3.33;;
3563;SDS011;1796;52.388;13.096;2023-02-28T07:59:56;7.83;;;4.20;;
3563;SDS011;1796;52.388;13.096;2023-02-28T08:02:23;6.20;;;3.57;;
3563;SDS011;1796;52.388;13.096;2023-02-28T08:04:50;4.97;;;3.60;;
3563;SDS011;1796;52.388;13.096;2023-02-28T08:07:19;5.40;;;3.97;;
3563;SDS011;1796;52.388;13.096;2023-02-28T08:09:45;4.10;;;3.70;;
3563;SDS011;1796;52.388;13.096;2023-02-28T08:12:12;4.33;;;3.50;;
3563;SDS011;1796;52.388;13.096;2023-02-28T08:14:39;4.70;;;3.80;;
3563;SDS011;1796;52.388;13.096;2023-02-28T08:17:06;3.60;;;3.27;;
3563;SDS011;1796;52.388;13.096;2023-02-28T08:19:33;7.20;;;3.87;;
3563;SDS011;1796;52.388;13.096;2023-02-28T08:22:00;6.80;;;4.07;;
3563;SDS011;1796;52.388;13.096;2023-02-28T08:24:28;5.07;;;3.40;;
3563;SDS011;1796;52.388;13.096;2023-02-28T08:26:55;5.53;;;3.23;;
3563;SDS011;1796;52.388;13.096;2023-02-28T08:29:22;4.40;;;3.40;;
3563;SDS011;1796;52.388;13.096;2023-02-28T08:31:49;3.30;;;3.00;;
3563;SDS011;1796;52.388;13.096;2023-02-28T08:34:16;3.90;;;2.40;;
3563;SDS011;1796;52.388;13.096;2023-02-28T08:36:43;15.70;;;2.90;;
3563;SDS011;1796;52.388;13.096;2023-02-28T08:39:11;3.50;;;2.50;;
3563;SDS011;1796;52.388;13.096;2023-02-28T08:41:39;4.67;;;2.43;;
3563;SDS011;1796;52.388;13.096;2023-02-28T08:44:06;5.73;;;3.20;;
3563;SDS011;1796;52.388;13.096;2023-02-28T08:46:33;2.70;;;2.60;;
3563;SDS011;1796;52.388;13.096;2023-02-28T08:49:00;9.47;;;3.00;;
3563;SDS011;1796;52.388;13.096;2023-02-28T08:51:27;5.80;;;2.40;;
3563;SDS011;1796;52.388;13.096;2023-02-28T08:53:55;6.50;;;2.70;;
3563;SDS011;1796;52.388;13.096;2023-02-28T08:56:25;5.20;;;2.20;;
3563;SDS011;1796;52.388;13.096;2023-02-28T08:58:54;5.53;;;2.70;;
3563;SDS011;1796;52.388;13.096;2023-02-28T09:01:23;1.90;;;1.80;;
3563;SDS011;1796;52.388;13.096;2023-02-28T09:03:52;2.63;;;2.43;;
3563;SDS011;1796;52.388;13.096;2023-02-28T09:06:20;2.13;;;1.90;;
3563;SDS011;1796;52.388;13.096;2023-02-28T09:08:48;3.00;;;2.30;;
3563;SDS011;1796;52.388;13.096;2023-02-28T09:11:15;4.73;;;2.03;;
3563;SDS011;1796;52.388;13.096;2023-02-28T09:13:43;1.60;;;1.50;;
3563;SDS011;1796;52.388;13.096;2023-02-28T09:16:13;2.30;;;2.10;;
3563;SDS011;1796;52.388;13.096;2023-02-28T09:18:41;2.80;;;2.13;;
3563;SDS011;1796;52.388;13.096;2023-02-28T09:21:09;2.43;;;2.03;;
3563;SDS011;1796;52.388;13.096;2023-02-28T09:23:39;1.90;;;1.70;;
3563;SDS011;1796;52.388;13.096;2023-02-28T09:26:06;2.13;;;1.90;;
3563;SDS011;1796;52.388;13.096;2023-02-28T09:28:33;2.60;;;1.87;;
3563;SDS011;1796;52.388;13.096;2023-02-28T09:31:00;4.13;;;1.40;;
3563;SDS011;1796;52.388;13.096;2023-02-28T09:33:30;1.60;;;1.50;;
3563;SDS011;1796;52.388;13.096;2023-02-28T09:35:59;1.63;;;1.33;;
3563;SDS011;1796;52.388;13.096;2023-02-28T09:38:26;1.60;;;1.50;;
3563;SDS011;1796;52.388;13.096;2023-02-28T09:40:54;11.80;;;1.80;;
3563;SDS011;1796;52.388;13.096;2023-02-28T09:43:23;1.50;;;1.50;;
3563;SDS011;1796;52.388;13.096;2023-02-28T09:45:55;2.00;;;1.43;;
3563;SDS011;1796;52.388;13.096;2023-02-28T09:48:27;4.83;;;1.47;;
3563;SDS011;1796;52.388;13.096;2023-02-28T09:51:02;4.00;;;1.33;;
3563;SDS011;1796;52.388;13.096;2023-02-28T09:53:31;1.70;;;1.17;;
3563;SDS011;1796;52.388;13.096;2023-02-28T09:56:01;2.30;;;1.40;;
3563;SDS011;1796;52.388;13.096;2023-02-28T09:58:32;1.87;;;1.40;;
3563;SDS011;1796;52.388;13.096;2023-02-28T10:01:03;1.73;;;1.70;;
3563;SDS011;1796;52.388;13.096;2023-02-28T10:03:37;1.27;;;1.20;;
3563;SDS011;1796;52.388;13.096;2023-02-28T10:06:07;1.80;;;1.50;;
3563;SDS011;1796;52.388;13.096;2023-02-28T10:08:40;3.27;;;2.17;;
3563;SDS011;1796;52.388;13.096;2023-02-28T10:11:16;1.80;;;1.70;;
3563;SDS011;1796;52.388;13.096;2023-02-28T10:13:48;3.43;;;1.90;;
3563;SDS011;1796;52.388;13.096;2023-02-28T10:16:20;1.67;;;1.57;;
3563;SDS011;1796;52.388;13.096;2023-02-28T10:18:54;2.30;;;1.40;;
3563;SDS011;1796;52.388;13.096;2023-02-28T10:21:24;1.60;;;1.47;;
3563;SDS011;1796;52.388;13.096;2023-02-28T10:23:56;1.97;;;1.83;;
3563;SDS011;1796;52.388;13.096;2023-02-28T10:26:29;1.63;;;1.53;;
3563;SDS011;1796;52.388;13.096;2023-02-28T10:28:58;1.60;;;1.60;;
3563;SDS011;1796;52.388;13.096;2023-02-28T10:31:25;3.13;;;1.63;;
3563;SDS011;1796;52.388;13.096;2023-02-28T10:33:54;1.40;;;1.40;;
3563;SDS011;1796;52.388;13.096;2023-02-28T10:36:21;8.93;;;1.60;;
3563;SDS011;1796;52.388;13.096;2023-02-28T10:38:48;1.83;;;1.67;;
3563;SDS011;1796;52.388;13.096;2023-02-28T10:41:17;1.50;;;1.40;;
3563;SDS011;1796;52.388;13.096;2023-02-28T10:44:08;2.10;;;1.60;;
3563;SDS011;1796;52.388;13.096;2023-02-28T10:46:40;3.43;;;1.70;;
3563;SDS011;1796;52.388;13.096;2023-02-28T10:49:14;3.90;;;1.40;;
3563;SDS011;1796;52.388;13.096;2023-02-28T10:51:43;1.57;;;1.47;;
3563;SDS011;1796;52.388;13.096;2023-02-28T10:54:15;3.30;;;1.40;;
3563;SDS011;1796;52.388;13.096;2023-02-28T10:56:44;1.20;;;1.20;;
3563;SDS011;1796;52.388;13.096;2023-02-28T10:59:25;1.53;;;1.53;;
3563;SDS011;1796;52.388;13.096;2023-02-28T11:01:54;3.03;;;2.10;;
3563;SDS011;1796;52.388;13.096;2023-02-28T11:04:33;1.77;;;1.67;;
3563;SDS011;1796;52.388;13.096;2023-02-28T11:07:05;4.60;;;1.63;;
3563;SDS011;1796;52.388;13.096;2023-02-28T11:09:44;1.93;;;1.40;;
3563;SDS011;1796;52.388;13.096;2023-02-28T11:12:19;2.00;;;1.57;;
3563;SDS011;1796;52.388;13.096;2023-02-28T11:14:49;10.23;;;1.67;;
3563;SDS011;1796;52.388;13.096;2023-02-28T11:17:19;1.97;;;1.70;;
3563;SDS011;1796;52.388;13.096;2023-02-28T11:19:50;3.70;;;2.00;;
3563;SDS011;1796;52.388;13.096;2023-02-28T11:22:19;2.03;;;1.93;;
3563;SDS011;1796;52.388;13.096;2023-02-28T11:24:51;1.70;;;1.53;;
3563;SDS011;1796;52.388;13.096;2023-02-28T11:27:25;5.23;;;2.17;;
3563;SDS011;1796;52.388;13.096;2023-02-28T11:30:11;2.43;;;2.23;;
3563;SDS011;1796;52.388;13.096;2023-02-28T11:32:54;2.03;;;1.93;;
3563;SDS011;1796;52.388;13.096;2023-02-28T11:35:23;2.20;;;1.93;;
3563;SDS011;1796;52.388;13.096;2023-02-28T11:37:54;26.47;;;2.17;;
3563;SDS011;1796;52.388;13.096;2023-02-28T11:40:24;1.80;;;1.70;;
3563;SDS011;1796;52.388;13.096;2023-02-28T11:43:06;2.10;;;2.00;;
3563;SDS011;1796;52.388;13.096;2023-02-28T11:45:47;4.47;;;2.90;;
3563;SDS011;1796;52.388;13.096;2023-02-28T11:48:25;5.43;;;2.57;;
3563;SDS011;1796;52.388;13.096;2023-02-28T11:51:03;1.90;;;1.80;;
3563;SDS011;1796;52.388;13.096;2023-02-28T11:53:42;2.70;;;2.23;;
3563;SDS011;1796;52.388;13.096;2023-02-28T11:56:30;2.17;;;2.07;;
3563;SDS011;1796;52.388;13.096;2023-02-28T11:59:02;2.20;;;1.87;;
3563;SDS011;1796;52.388;13.096;2023-02-28T12:01:43;3.87;;;2.40;;
3563;SDS011;1796;52.388;13.096;2023-02-28T12:04:25;2.40;;;2.30;;
3563;SDS011;1796;52.388;13.096;2023-02-28T12:07:03;2.67;;;2.47;;
3563;SDS011;1796;52.388;13.096;2023-02-28T12:09:41;3.73;;;2.10;;
3563;SDS011;1796;52.388;13.096;2023-02-28T12:12:20;2.00;;;1.90;;
3563;SDS011;1796;52.388;13.096;2023-02-28T12:15:03;2.13;;;2.03;;
3563;SDS011;1796;52.388;13.096;2023-02-28T12:17:46;2.17;;;2.07;;
3563;SDS011;1796;52.388;13.096;2023-02-28T12:20:24;3.53;;;2.20;;
3563;SDS011;1796;52.388;13.096;2023-02-28T12:23:00;2.07;;;1.87;;
3563;SDS011;1796;52.388;13.096;2023-02-28T12:25:48;1.97;;;1.87;;
3563;SDS011;1796;52.388;13.096;2023-02-28T12:28:24;5.37;;;2.40;;
3563;SDS011;1796;52.388;13.096;2023-02-28T12:30:55;2.33;;;2.20;;
3563;SDS011;1796;52.388;13.096;2023-02-28T12:33:27;4.33;;;2.10;;
3563;SDS011;1796;52.388;13.096;2023-02-28T12:36:00;5.23;;;2.30;;
3563;SDS011;1796;52.388;13.096;2023-02-28T12:38:34;2.37;;;2.27;;
3563;SDS011;1796;52.388;13.096;2023-02-28T12:41:04;4.10;;;2.10;;
3563;SDS011;1796;52.388;13.096;2023-02-28T12:43:37;2.33;;;2.13;;
3563;SDS011;1796;52.388;13.096;2023-02-28T12:46:09;2.93;;;2.63;;
3563;SDS011;1796;52.388;13.096;2023-02-28T12:48:40;10.67;;;2.20;;
3563;SDS011;1796;52.388;13.096;2023-02-28T12:51:09;2.10;;;2.00;;
3563;SDS011;1796;52.388;13.096;2023-02-28T12:53:41;2.93;;;2.60;;
3563;SDS011;1796;52.388;13.096;2023-02-28T12:56:19;2.27;;;2.07;;
3563;SDS011;1796;52.388;13.096;2023-02-28T12:58:56;3.33;;;2.33;;
3563;SDS011;1796;52.388;13.096;2023-02-28T13:01:36;2.13;;;2.00;;
3563;SDS011;1796;52.388;13.096;2023-02-28T13:04:26;2.33;;;2.10;;
3563;SDS011;1796;52.388;13.096;2023-02-28T13:07:20;12.10;;;2.93;;
3563;SDS011;1796;52.388;13.096;2023-02-28T13:10:04;5.30;;;2.80;;
3563;SDS011;1796;52.388;13.096;2023-02-28T13:12:32;2.60;;;2.33;;
3563;SDS011;1796;52.388;13.096;2023-02-28T13:15:02;4.63;;;2.40;;
3563;SDS011;1796;52.388;13.096;2023-02-28T13:17:36;2.77;;;2.30;;
3563;SDS011;1796;52.388;13.096;2023-02-28T13:20:13;2.20;;;2.10;;
3563;SDS011;1796;52.388;13.096;2023-02-28T13:22:44;2.70;;;2.50;;
3563;SDS011;1796;52.388;13.096;2023-02-28T13:31:24;4.67;;;2.50;;
3563;SDS011;1796;52.388;13.096;2023-02-28T13:36:40;3.53;;;2.20;;
3563;SDS011;1796;52.388;13.096;2023-02-28T13:45:22;3.00;;;2.70;;
3563;SDS011;1796;52.388;13.096;2023-02-28T13:47:54;5.63;;;3.07;;
3563;SDS011;1796;52.388;13.096;2023-02-28T13:50:27;3.07;;;2.67;;
3563;SDS011;1796;52.388;13.096;2023-02-28T13:56:03;3.00;;;2.80;;
3563;SDS011;1796;52.388;13.096;2023-02-28T13:58:48;3.20;;;2.67;;
3563;SDS011;1796;52.388;13.096;2023-02-28T14:07:09;2.80;;;2.60;;
3563;SDS011;1796;52.388;13.096;2023-02-28T14:09:45;3.77;;;2.80;;
3563;SDS011;1796;52.388;13.096;2023-02-28T14:18:15;3.97;;;2.27;;
3563;SDS011;1796;52.388;13.096;2023-02-28T14:20:46;5.30;;;2.83;;
3563;SDS011;1796;52.388;13.096;2023-02-28T14:24:24;3.40;;;3.10;;
3563;SDS011;1796;52.388;13.096;2023-02-28T14:27:07;5.90;;;2.93;;
3563;SDS011;1796;52.388;13.096;2023-02-28T14:32:54;3.33;;;3.07;;
3563;SDS011;1796;52.388;13.096;2023-02-28T14:35:39;3.37;;;3.07;;
3563;SDS011;1796;52.388;13.096;2023-02-28T14:38:19;3.97;;;2.70;;
3563;SDS011;1796;52.388;13.096;2023-02-28T14:40:52;2.90;;;2.60;;
3563;SDS011;1796;52.388;13.096;2023-02-28T14:43:21;5.37;;;2.77;;
3563;SDS011;1796;52.388;13.096;2023-02-28T14:45:50;3.07;;;2.50;;
3563;SDS011;1796;52.388;13.096;2023-02-28T14:48:19;3.10;;;2.63;;
3563;SDS011;1796;52.388;13.096;2023-02-28T14:50:51;2.93;;;2.73;;
3563;SDS011;1796;52.388;13.096;2023-02-28T14:53:20;2.90;;;2.60;;
3563;SDS011;1796;52.388;13.096;2023-02-28T14:55:49;7.90;;;3.10;;
3563;SDS011;1796;52.388;13.096;2023-02-28T14:58:21;6.00;;;3.30;;
3563;SDS011;1796;52.388;13.096;2023-02-28T15:00:50;3.30;;;3.00;;
3563;SDS011;1796;52.388;13.096;2023-02-28T15:03:19;4.40;;;3.17;;
3563;SDS011;1796;52.388;13.096;2023-02-28T15:05:51;3.90;;;3.23;;
3563;SDS011;1796;52.388;13.096;2023-02-28T15:08:19;4.07;;;3.00;;
3563;SDS011;1796;52.388;13.096;2023-02-28T15:10:49;3.07;;;2.87;;
3563;SDS011;1796;52.388;13.096;2023-02-28T15:13:20;5.40;;;3.40;;
3563;SDS011;1796;52.388;13.096;2023-02-28T15:15:50;2.90;;;2.70;;
3563;SDS011;1796;52.388;13.096;2023-02-28T15:18:28;3.57;;;3.27;;
3563;SDS011;1796;52.388;13.096;2023-02-28T15:20:58;2.70;;;2.50;;
3563;SDS011;1796;52.388;13.096;2023-02-28T15:23:28;2.90;;;2.63;;
3563;SDS011;1796;52.388;13.096;2023-02-28T15:26:00;5.13;;;2.67;;
3563;SDS011;1796;52.388;13.096;2023-02-28T15:28:28;2.77;;;2.40;;
3563;SDS011;1796;52.388;13.096;2023-02-28T15:30:56;4.70;;;3.10;;
3563;SDS011;1796;52.388;13.096;2023-02-28T15:33:25;11.00;;;3.23;;
3563;SDS011;1796;52.388;13.096;2023-02-28T15:36:03;2.70;;;2.50;;
3563;SDS011;1796;52.388;13.096;2023-02-28T15:38:33;7.50;;;2.50;;
3563;SDS011;1796;52.388;13.096;2023-02-28T15:41:02;2.87;;;2.70;;
3563;SDS011;1796;52.388;13.096;2023-02-28T15:43:36;4.40;;;2.90;;
3563;SDS011;1796;52.388;13.096;2023-02-28T15:46:05;2.93;;;2.60;;
3563;SDS011;1796;52.388;13.096;2023-02-28T15:48:35;3.33;;;2.87;;
3563;SDS011;1796;52.388;13.096;2023-02-28T15:51:06;8.10;;;2.83;;
3563;SDS011;1796;52.388;13.096;2023-02-28T15:53:35;9.20;;;2.70;;
3563;SDS011;1796;52.388;13.096;2023-02-28T15:56:16;2.90;;;2.70;;
3563;SDS011;1796;52.388;13.096;2023-02-28T15:58:49;2.83;;;2.63;;
3563;SDS011;1796;52.388;13.096;2023-02-28T16:01:20;3.70;;;2.27;;
3563;SDS011;1796;52.388;13.096;2023-02-28T16:03:51;2.60;;;2.40;;
3563;SDS011;1796;52.388;13.096;2023-02-28T16:09:10;4.30;;;2.80;;